createdAt,value
2018-05-12T00:00:08.406Z,100132.67
2018-05-12T00:02:37.758Z,100135.48
2018-05-12T00:05:07.435Z,100144.97
2018-05-12T00:07:37.073Z,100144.38
2018-05-12T00:10:06.738Z,100135.57
2018-05-12T00:12:36.100Z,100146.39
2018-05-12T00:15:05.774Z,100140.41
2018-05-12T00:17:35.632Z,100143.29
2018-05-12T00:20:04.702Z,100142.21
2018-05-12T00:22:34.069Z,100144.03
2018-05-12T00:25:03.712Z,100145.35
2018-05-12T00:27:33.351Z,100139.91
2018-05-12T00:30:03.027Z,100141.63
2018-05-12T00:32:32.669Z,100141.18
2018-05-12T00:35:02.309Z,100144.23
2018-05-12T00:37:32.013Z,100148.55
2018-05-12T00:40:01.689Z,100149.72
2018-05-12T00:42:32.305Z,100151.70
2018-05-12T00:45:01.991Z,100150.84
2018-05-12T00:47:31.484Z,100142.44
2018-05-12T00:50:01.146Z,100144.98
2018-05-12T00:52:30.781Z,100141.36
2018-05-12T00:55:00.488Z,100140.31
2018-05-12T00:57:30.368Z,100144.17
2018-05-12T01:00:00.023Z,100142.18
2018-05-12T01:02:29.668Z,100140.19
2018-05-12T01:04:59.304Z,100138.32
2018-05-12T01:07:28.995Z,100137.91
2018-05-12T01:09:58.639Z,100137.14
2018-05-12T01:12:28.291Z,100141.76
2018-05-12T01:14:57.928Z,100135.74
2018-05-12T01:17:27.579Z,100138.03
2018-05-12T01:19:56.974Z,100128.44
2018-05-12T01:22:26.620Z,100138.22
2018-05-12T01:24:56.268Z,100139.41
2018-05-12T01:27:25.899Z,100141.59
2018-05-12T01:29:55.540Z,100144.63
2018-05-12T01:32:25.232Z,100136.42
2018-05-12T01:34:54.880Z,100133.56
2018-05-12T01:37:24.558Z,100143.87
2018-05-12T01:39:54.182Z,100136.95
2018-05-12T01:42:23.531Z,100137.28
2018-05-12T01:44:53.173Z,100132.47
2018-05-12T01:47:22.812Z,100135.57
2018-05-12T01:49:52.466Z,100137.45
2018-05-12T01:52:22.118Z,100139.65
2018-05-12T01:54:51.750Z,100137.50
2018-05-12T01:57:21.419Z,100141.53
2018-05-12T01:59:51.066Z,100132.92
2018-05-12T02:02:20.705Z,100140.62
2018-05-12T02:04:50.180Z,100137.33
2018-05-12T02:07:19.810Z,100139.03
2018-05-12T02:09:49.483Z,100141.08
2018-05-12T02:12:19.134Z,100139.03
2018-05-12T02:14:48.776Z,100133.91
2018-05-12T02:17:18.423Z,100129.74
2018-05-12T02:19:48.060Z,100128.34
2018-05-12T02:22:17.745Z,100130.08
2018-05-12T02:24:47.382Z,100131.67
2018-05-12T02:27:17.007Z,100129.81
2018-05-12T02:29:46.648Z,100124.81
2018-05-12T02:32:16.304Z,100125.45
2018-05-12T02:34:46.009Z,100127.64
2018-05-12T02:37:15.648Z,100125.45
2018-05-12T02:39:45.331Z,100134.39
2018-05-12T02:42:14.691Z,100124.36
2018-05-12T02:44:44.330Z,100130.62
2018-05-12T02:47:13.741Z,100131.09
2018-05-12T02:49:43.393Z,100127.91
2018-05-12T02:52:13.023Z,100131.07
2018-05-12T02:54:42.668Z,100132.17
2018-05-12T02:57:11.970Z,100128.27
2018-05-12T02:59:41.643Z,100137.88
2018-05-12T03:02:11.278Z,100132.36
2018-05-12T03:04:40.920Z,100131.63
2018-05-12T03:07:10.276Z,100133.86
2018-05-12T03:09:39.910Z,100130.52
2018-05-12T03:12:09.251Z,100138.36
2018-05-12T03:14:38.884Z,100147.56
2018-05-12T03:17:08.532Z,100140.64
2018-05-12T03:19:38.164Z,100147.60
2018-05-12T03:22:07.798Z,100158.36
2018-05-12T03:24:37.199Z,100157.60
2018-05-12T03:27:06.855Z,100154.54
2018-05-12T03:29:36.482Z,100153.61
2018-05-12T03:32:06.110Z,100155.45
2018-05-12T03:34:35.768Z,100156.68
2018-05-12T03:37:05.442Z,100157.81
2018-05-12T03:39:35.077Z,100158.67
2018-05-12T03:42:04.756Z,100158.38
2018-05-12T03:44:34.396Z,100158.25
2018-05-12T03:47:04.069Z,100153.20
2018-05-12T03:49:33.527Z,100152.08
2018-05-12T03:52:02.956Z,100148.76
2018-05-12T03:54:32.608Z,100156.82
2018-05-12T03:57:02.239Z,100153.27
2018-05-12T03:59:31.895Z,100156.18
2018-05-12T04:02:01.568Z,100155.20
2018-05-12T04:04:42.352Z,100151.33
2018-05-12T04:07:22.974Z,100154.12
2018-05-12T04:10:05.240Z,100150.05
2018-05-12T04:12:34.676Z,100154.95
2018-05-12T04:15:04.086Z,100156.71
2018-05-12T04:17:33.492Z,100151.23
2018-05-12T04:20:03.208Z,100152.47
2018-05-12T04:22:32.834Z,100155.16
2018-05-12T04:25:02.517Z,100162.06
2018-05-12T04:27:32.453Z,100164.44
2018-05-12T04:30:02.107Z,100164.52
2018-05-12T04:32:31.744Z,100162.52
2018-05-12T04:35:01.404Z,100163.49
2018-05-12T04:37:30.754Z,100156.88
2018-05-12T04:40:00.396Z,100165.41
2018-05-12T04:42:30.081Z,100166.83
2018-05-12T04:44:59.715Z,100164.85
2018-05-12T04:47:29.344Z,100166.21
2018-05-12T04:49:58.998Z,100162.84
2018-05-12T04:52:28.648Z,100164.67
2018-05-12T04:54:58.341Z,100172.02
2018-05-12T04:57:27.980Z,100172.97
2018-05-12T04:59:57.614Z,100171.00
2018-05-12T05:02:27.260Z,100165.97
2018-05-12T05:04:56.903Z,100169.55
2018-05-12T05:07:26.573Z,100175.53
2018-05-12T05:09:56.216Z,100165.16
2018-05-12T05:12:25.884Z,100171.19
2018-05-12T05:14:55.510Z,100166.76
2018-05-12T05:17:25.159Z,100178.39
2018-05-12T05:19:54.837Z,100166.18
2018-05-12T05:22:24.469Z,100164.38
2018-05-12T05:24:54.097Z,100168.48
2018-05-12T05:27:23.740Z,100166.61
2018-05-12T05:29:53.378Z,100168.54
2018-05-12T05:32:23.063Z,100165.73
2018-05-12T05:34:52.695Z,100168.63
2018-05-12T05:37:22.328Z,100171.41
2018-05-12T05:39:51.967Z,100169.56
2018-05-12T05:42:21.609Z,100168.91
2018-05-12T05:44:51.284Z,100166.05
2018-05-12T05:47:20.963Z,100161.55
2018-05-12T05:49:50.821Z,100160.25
2018-05-12T05:52:20.465Z,100162.14
2018-05-12T05:54:50.114Z,100161.83
2018-05-12T05:57:19.793Z,100162.77
2018-05-12T05:59:49.431Z,100165.52
2018-05-12T06:02:19.146Z,100166.73
2018-05-12T06:04:48.793Z,100158.30
2018-05-12T06:07:18.426Z,100166.43
2018-05-12T06:09:48.100Z,100155.01
2018-05-12T06:12:17.741Z,100161.17
2018-05-12T06:14:47.380Z,100163.70
2018-05-12T06:17:17.016Z,100162.95
2018-05-12T06:19:46.660Z,100164.61
2018-05-12T06:22:16.335Z,100168.41
2018-05-12T06:24:45.964Z,100171.02
2018-05-12T06:27:15.619Z,100171.41
2018-05-12T06:29:45.258Z,100171.55
2018-05-12T06:32:14.887Z,100168.08
2018-05-12T06:34:44.580Z,100168.66
2018-05-12T06:37:14.221Z,100170.62
2018-05-12T06:39:43.876Z,100172.17
2018-05-12T06:42:13.520Z,100165.06
2018-05-12T06:44:43.160Z,100167.05
2018-05-12T06:47:12.840Z,100164.39
2018-05-12T06:49:42.489Z,100160.36
2018-05-12T06:52:12.909Z,100157.80
2018-05-12T06:54:42.548Z,100160.22
2018-05-12T06:57:12.194Z,100162.04
2018-05-12T06:59:41.889Z,100163.89
2018-05-12T07:02:11.531Z,100158.78
2018-05-12T07:04:41.159Z,100151.45
2018-05-12T07:07:10.797Z,100155.13
2018-05-12T07:09:41.027Z,100160.08
2018-05-12T07:12:11.335Z,100152.74
2018-05-12T07:14:41.581Z,100153.88
2018-05-12T07:17:11.848Z,100153.34
2018-05-12T07:19:42.089Z,100159.14
2018-05-12T07:22:12.312Z,100150.88
2018-05-12T07:24:42.587Z,100150.26
2018-05-12T07:27:12.824Z,100149.86
2018-05-12T07:29:43.223Z,100147.27
2018-05-12T07:32:13.604Z,100156.32
2018-05-12T07:34:43.876Z,100147.03
2018-05-12T07:37:14.108Z,100148.53
2018-05-12T07:39:44.336Z,100146.43
2018-05-12T07:42:14.600Z,100144.32
2018-05-12T07:44:44.840Z,100145.23
2018-05-12T07:47:15.256Z,100142.75
2018-05-12T07:49:45.778Z,100140.78
2018-05-12T07:52:17.027Z,100140.31
2018-05-12T07:54:47.233Z,100128.66
2018-05-12T07:57:17.728Z,100131.85
2018-05-12T07:59:47.953Z,100132.98
2018-05-12T08:02:18.231Z,100136.77
2018-05-12T08:04:48.480Z,100128.20
2018-05-12T08:07:18.730Z,100129.69
2018-05-12T08:09:48.956Z,100129.27
2018-05-12T08:12:19.178Z,100119.92
2018-05-12T08:14:49.443Z,100114.87
2018-05-12T08:17:19.668Z,100115.68
2018-05-12T08:19:49.919Z,100112.23
2018-05-12T08:22:20.130Z,100113.52
2018-05-12T08:24:50.363Z,100112.91
2018-05-12T08:27:20.626Z,100112.93
2018-05-12T08:29:50.874Z,100114.19
2018-05-12T08:32:21.154Z,100113.12
2018-05-12T08:34:51.404Z,100117.08
2018-05-12T08:37:21.651Z,100116.42
2018-05-12T08:39:51.877Z,100113.69
2018-05-12T08:42:22.142Z,100116.03
2018-05-12T08:44:52.381Z,100118.50
2018-05-12T08:47:22.616Z,100115.43
2018-05-12T08:49:52.902Z,100118.33
2018-05-12T08:52:23.119Z,100117.05
2018-05-12T08:54:53.396Z,100112.58
2018-05-12T08:57:23.629Z,100108.21
2018-05-12T08:59:53.889Z,100107.03
2018-05-12T09:02:24.118Z,100106.23
2018-05-12T09:04:54.352Z,100104.47
2018-05-12T09:07:25.458Z,100101.66
2018-05-12T09:09:55.687Z,100102.77
2018-05-12T09:12:25.974Z,100100.83
2018-05-12T09:14:56.499Z,100098.22
2018-05-12T09:17:26.810Z,100096.89
2018-05-12T09:19:57.043Z,100097.63
2018-05-12T09:22:27.310Z,100091.91
2018-05-12T09:24:57.564Z,100095.34
2018-05-12T09:27:27.542Z,100088.83
2018-05-12T09:29:57.449Z,100088.73
2018-05-12T09:32:27.822Z,100085.07
2018-05-12T09:34:58.123Z,100094.27
2018-05-12T09:37:28.359Z,100084.13
2018-05-12T09:39:58.606Z,100081.73
2018-05-12T09:42:28.859Z,100084.34
2018-05-12T09:44:59.278Z,100074.92
2018-05-12T09:47:29.539Z,100079.10
2018-05-12T09:49:59.759Z,100081.73
2018-05-12T09:52:30.017Z,100075.80
2018-05-12T09:55:00.258Z,100079.19
2018-05-12T09:57:30.504Z,100077.61
2018-05-12T10:00:00.930Z,100075.73
2018-05-12T10:02:31.560Z,100070.63
2018-05-12T10:05:01.847Z,100068.51
2018-05-12T10:07:31.872Z,100065.19
2018-05-12T10:10:02.218Z,100069.19
2018-05-12T10:12:32.516Z,100066.27
2018-05-12T10:15:02.780Z,100065.25
2018-05-12T10:17:33.007Z,100057.59
2018-05-12T10:20:03.235Z,100056.66
2018-05-12T10:22:33.607Z,100058.86
2018-05-12T10:25:03.616Z,100050.09
2018-05-12T10:27:33.863Z,100050.13
2018-05-12T10:30:03.863Z,100052.30
2018-05-12T10:32:34.107Z,100046.80
2018-05-12T10:35:04.067Z,100044.30
2018-05-12T10:37:34.340Z,100037.78
2018-05-12T10:40:05.208Z,100042.28
2018-05-12T10:42:35.481Z,100038.19
2018-05-12T10:45:05.798Z,100041.56
2018-05-12T10:47:36.039Z,100036.16
2018-05-12T10:50:06.355Z,100031.80
2018-05-12T10:52:36.636Z,100033.52
2018-05-12T10:55:06.891Z,100031.98
2018-05-12T10:57:36.803Z,100028.58
2018-05-12T11:00:07.073Z,100026.00
2018-05-12T11:02:37.303Z,100026.89
2018-05-12T11:05:07.792Z,100016.64
2018-05-12T11:07:38.013Z,100021.64
2018-05-12T11:10:08.278Z,100021.31
2018-05-12T11:12:38.503Z,100014.85
2018-05-12T11:15:08.838Z,100017.82
2018-05-12T11:17:39.088Z,100010.47
2018-05-12T11:20:09.363Z,100008.03
2018-05-12T11:22:39.841Z,100000.44
2018-05-12T11:25:10.116Z,100001.03
2018-05-12T11:27:40.496Z,100001.75
2018-05-12T11:30:10.736Z,100006.19
2018-05-12T11:32:41.016Z,100002.86
2018-05-12T11:35:11.276Z,99998.97
2018-05-12T11:37:42.486Z,99990.09
2018-05-12T11:40:12.726Z,99990.08
2018-05-12T11:42:43.013Z,99989.34
2018-05-12T11:45:13.233Z,99989.45
2018-05-12T11:47:43.482Z,99982.72
2018-05-12T11:50:13.713Z,99979.67
2018-05-12T11:52:44.151Z,99970.52
2018-05-12T11:55:14.423Z,99974.14
2018-05-12T11:57:44.664Z,99976.09
2018-05-12T12:00:14.977Z,99977.80
2018-05-12T12:02:45.208Z,99971.17
2018-05-12T12:05:15.427Z,99974.72
2018-05-12T12:07:45.763Z,99965.59
2018-05-12T12:10:16.041Z,99964.84
2018-05-12T12:12:46.329Z,99957.09
2018-05-12T12:15:16.564Z,99948.61
2018-05-12T12:17:46.560Z,99950.10
2018-05-12T12:20:16.281Z,99951.64
2018-05-12T12:22:46.521Z,99945.61
2018-05-12T12:25:16.802Z,99945.17
2018-05-12T12:27:47.037Z,99943.67
2018-05-12T12:30:17.379Z,99935.73
2018-05-12T12:32:47.754Z,99933.80
2018-05-12T12:35:18.081Z,99923.78
2018-05-12T12:37:48.299Z,99918.11
2018-05-12T12:40:18.534Z,99917.37
2018-05-12T12:42:48.752Z,99918.11
2018-05-12T12:45:18.962Z,99921.75
2018-05-12T12:47:49.240Z,99918.32
2018-05-12T12:50:19.456Z,99930.58
2018-05-12T12:52:49.681Z,99925.17
2018-05-12T12:55:19.905Z,99919.81
2018-05-12T12:57:50.110Z,99922.95
2018-05-12T13:00:19.791Z,99943.55
2018-05-12T13:02:49.436Z,99955.19
2018-05-12T13:05:19.065Z,99953.95
2018-05-12T13:07:48.694Z,99957.48
2018-05-12T13:10:19.081Z,99946.81
2018-05-12T13:12:48.734Z,99952.89
2018-05-12T13:15:18.632Z,99954.83
2018-05-12T13:17:48.274Z,99947.84
2018-05-12T13:20:17.904Z,99928.70
2018-05-12T13:22:48.468Z,99936.19
2018-05-12T13:25:18.142Z,99929.27
2018-05-12T13:27:47.834Z,99928.50
2018-05-12T13:30:17.640Z,99928.05
2018-05-12T13:32:47.273Z,99922.60
2018-05-12T13:35:16.904Z,99931.03
2018-05-12T13:37:46.587Z,99937.31
2018-05-12T13:40:16.712Z,99933.23
2018-05-12T13:42:46.612Z,99930.18
2018-05-12T13:45:16.240Z,99929.42
2018-05-12T13:47:45.924Z,99925.42
2018-05-12T13:50:15.606Z,99920.03
2018-05-12T13:52:45.241Z,99915.03
2018-05-12T13:55:14.563Z,99905.23
2018-05-12T13:57:44.179Z,99904.02
2018-05-12T14:00:13.805Z,99900.34
2018-05-12T14:02:43.451Z,99894.63
2018-05-12T14:05:13.083Z,99889.81
2018-05-12T14:07:42.730Z,99890.34
2018-05-12T14:10:12.509Z,99891.72
2018-05-12T14:12:42.235Z,99891.61
2018-05-12T14:15:11.919Z,99891.93
2018-05-12T14:17:41.548Z,99886.20
2018-05-12T14:20:11.192Z,99884.64
2018-05-12T14:22:40.827Z,99879.70
2018-05-12T14:25:10.464Z,99882.40
2018-05-12T14:27:39.812Z,99882.95
2018-05-12T14:30:11.080Z,99882.13
2018-05-12T14:32:40.518Z,99884.33
2018-05-12T14:35:10.163Z,99885.09
2018-05-12T14:37:39.806Z,99876.88
2018-05-12T14:40:09.468Z,99878.67
2018-05-12T14:42:39.116Z,99880.87
2018-05-12T14:45:09.011Z,99873.81
2018-05-12T14:47:38.659Z,99874.09
2018-05-12T14:50:08.285Z,99876.02
2018-05-12T14:52:38.292Z,99874.92
2018-05-12T14:55:07.921Z,99877.74
2018-05-12T14:57:37.596Z,99875.96
2018-05-12T15:00:07.229Z,99878.92
2018-05-12T15:02:36.898Z,99885.28
2018-05-12T15:05:06.200Z,99894.48
2018-05-12T15:07:35.845Z,99894.88
2018-05-12T15:10:05.249Z,99898.68
2018-05-12T15:12:34.878Z,99892.92
2018-05-12T15:15:04.168Z,99892.98
2018-05-12T15:17:33.815Z,99891.97
2018-05-12T15:20:03.451Z,99890.61
2018-05-12T15:22:33.122Z,99886.20
2018-05-12T15:25:04.625Z,99882.13
2018-05-12T15:27:34.294Z,99883.34
2018-05-12T15:30:03.686Z,99887.41
2018-05-12T15:32:33.342Z,99898.38
2018-05-12T15:35:02.968Z,99892.55
2018-05-12T15:37:32.586Z,99884.98
2018-05-12T15:40:02.288Z,99884.84
2018-05-12T15:42:31.907Z,99875.80
2018-05-12T15:45:01.545Z,99878.24
2018-05-12T15:47:31.208Z,99875.77
2018-05-12T15:50:00.956Z,99879.84
2018-05-12T15:52:30.798Z,99875.45
2018-05-12T15:55:00.431Z,99883.91
2018-05-12T15:57:30.082Z,99886.65
2018-05-12T15:59:59.717Z,99888.81
2018-05-12T16:02:29.365Z,99883.44
2018-05-12T16:04:59.050Z,99882.78
2018-05-12T16:07:28.701Z,99877.68
2018-05-12T16:09:58.346Z,99887.60
2018-05-12T16:12:27.993Z,99897.72
2018-05-12T16:14:57.634Z,99909.72
2018-05-12T16:17:27.311Z,99911.84
2018-05-12T16:19:56.943Z,99913.28
2018-05-12T16:22:26.590Z,99907.83
2018-05-12T16:24:56.210Z,99911.22
2018-05-12T16:27:25.837Z,99918.67
2018-05-12T16:29:55.516Z,99916.07
2018-05-12T16:32:25.138Z,99917.83
2018-05-12T16:34:54.779Z,99912.14
2018-05-12T16:37:24.468Z,99912.81
2018-05-12T16:39:54.259Z,99916.86
2018-05-12T16:42:23.608Z,99907.75
2018-05-12T16:44:53.254Z,99907.11
2018-05-12T16:47:22.880Z,99890.93
2018-05-12T16:49:52.503Z,99881.13
2018-05-12T16:52:22.162Z,99887.68
2018-05-12T16:54:51.836Z,99876.59
2018-05-12T16:57:21.955Z,99877.55
2018-05-12T16:59:51.636Z,99878.50
2018-05-12T17:02:21.298Z,99873.95
2018-05-12T17:04:50.936Z,99875.98
2018-05-12T17:07:20.616Z,99869.77
2018-05-12T17:09:50.256Z,99867.11
2018-05-12T17:12:19.898Z,99871.44
2018-05-12T17:14:49.761Z,99867.25
2018-05-12T17:17:19.412Z,99865.77
2018-05-12T17:19:49.090Z,99871.59
2018-05-12T17:22:18.723Z,99867.17
2018-05-12T17:24:48.392Z,99864.46
2018-05-12T17:27:18.028Z,99860.20
2018-05-12T17:29:47.753Z,99868.41
2018-05-12T17:32:17.579Z,99868.67
2018-05-12T17:34:47.240Z,99869.77
2018-05-12T17:37:16.875Z,99865.02
2018-05-12T17:39:46.515Z,99870.03
2018-05-12T17:42:16.195Z,99865.44
2018-05-12T17:44:45.905Z,99866.83
2018-05-12T17:47:15.556Z,99865.36
2018-05-12T17:49:45.376Z,99864.20
2018-05-12T17:52:15.015Z,99861.23
2018-05-12T17:54:44.794Z,99860.73
2018-05-12T17:57:14.479Z,99859.92
2018-05-12T17:59:44.121Z,99864.93
2018-05-12T18:02:13.558Z,99862.63
2018-05-12T18:04:43.195Z,99861.95
2018-05-12T18:07:12.887Z,99862.08
2018-05-12T18:09:42.324Z,99856.50
2018-05-12T18:12:11.697Z,99859.89
2018-05-12T18:14:41.021Z,99854.78
2018-05-12T18:17:10.411Z,99855.87
2018-05-12T18:19:39.787Z,99850.33
2018-05-12T18:22:09.193Z,99848.16
2018-05-12T18:24:38.327Z,99847.89
2018-05-12T18:27:07.692Z,99849.92
2018-05-12T18:29:37.060Z,99842.06
2018-05-12T18:32:06.431Z,99851.26
2018-05-12T18:34:36.124Z,99849.45
2018-05-12T18:37:05.754Z,99844.84
2018-05-12T18:39:40.213Z,99844.66
2018-05-12T18:42:09.647Z,99845.81
2018-05-12T18:44:39.024Z,99848.85
2018-05-12T18:47:08.384Z,99852.44
2018-05-12T18:49:37.735Z,99856.63
2018-05-12T18:52:07.151Z,99857.70
2018-05-12T18:54:36.531Z,99858.61
2018-05-12T18:57:05.888Z,99858.86
2018-05-12T18:59:35.562Z,99862.50
2018-05-12T19:02:04.939Z,99868.55
2018-05-12T19:04:34.356Z,99865.02
2018-05-12T19:07:03.678Z,99870.78
2018-05-12T19:09:33.037Z,99871.22
2018-05-12T19:12:02.758Z,99872.80
2018-05-12T19:14:32.262Z,99873.03
2018-05-12T19:17:01.730Z,99875.23
2018-05-12T19:19:31.246Z,99883.70
2018-05-12T19:22:00.612Z,99885.20
2018-05-12T19:24:29.982Z,99883.98
2018-05-12T19:26:59.408Z,99879.23
2018-05-12T19:29:28.822Z,99890.85
2018-05-12T19:31:58.254Z,99889.22
2018-05-12T19:34:27.622Z,99888.27
2018-05-12T19:36:57.000Z,99888.88
2018-05-12T19:39:26.355Z,99892.52
2018-05-12T19:41:55.772Z,99885.03
2018-05-12T19:44:25.135Z,99890.38
2018-05-12T19:46:54.783Z,99886.78
2018-05-12T19:49:24.152Z,99887.25
2018-05-12T19:51:54.484Z,99888.45
2018-05-12T19:54:23.903Z,99886.27
2018-05-12T19:56:53.291Z,99888.89
2018-05-12T19:59:22.673Z,99892.92
2018-05-12T20:01:52.041Z,99888.86
2018-05-12T20:04:21.398Z,99886.41
2018-05-12T20:06:50.818Z,99888.05
2018-05-12T20:09:20.296Z,99881.58
2018-05-12T20:11:49.658Z,99889.25
2018-05-12T20:14:18.457Z,99887.91
2018-05-12T20:16:47.819Z,99878.66
2018-05-12T20:19:17.227Z,99881.35
2018-05-12T20:21:46.604Z,99878.30
2018-05-12T20:24:15.986Z,99882.27
2018-05-12T20:26:45.349Z,99877.72
2018-05-12T20:29:14.734Z,99876.54
2018-05-12T20:31:44.147Z,99877.00
2018-05-12T20:34:13.502Z,99875.31
2018-05-12T20:36:42.855Z,99875.02
2018-05-12T20:39:12.227Z,99876.93
2018-05-12T20:41:41.587Z,99879.32
2018-05-12T20:44:10.988Z,99880.97
2018-05-12T20:46:40.381Z,99880.00
2018-05-12T20:49:09.741Z,99880.98
2018-05-12T20:51:39.379Z,99876.34
2018-05-12T20:54:08.752Z,99876.53
2018-05-12T20:56:38.151Z,99875.18
2018-05-12T20:59:07.532Z,99882.55
2018-05-12T21:01:36.890Z,99871.50
2018-05-12T21:04:06.525Z,99875.52
2018-05-12T21:06:35.887Z,99867.62
2018-05-12T21:09:04.728Z,99869.66
2018-05-12T21:11:34.459Z,99874.34
2018-05-12T21:14:03.820Z,99872.55
2018-05-12T21:16:33.183Z,99876.34
2018-05-12T21:19:02.548Z,99872.89
2018-05-12T21:21:32.230Z,99871.02
2018-05-12T21:24:01.687Z,99861.52
2018-05-12T21:26:31.187Z,99867.47
2018-05-12T21:29:00.550Z,99868.34
2018-05-12T21:31:29.902Z,99868.95
2018-05-12T21:33:59.323Z,99872.95
2018-05-12T21:36:28.955Z,99868.50
2018-05-12T21:38:58.135Z,99866.52
2018-05-12T21:41:27.796Z,99872.29
2018-05-12T21:43:57.154Z,99874.50
2018-05-12T21:46:26.596Z,99874.22
2018-05-12T21:48:55.620Z,99870.67
2018-05-12T21:51:24.972Z,99868.16
2018-05-12T21:53:54.346Z,99867.55
2018-05-12T21:56:23.688Z,99867.09
2018-05-12T21:58:52.890Z,99871.68
2018-05-12T22:01:22.504Z,99863.84
2018-05-12T22:03:51.856Z,99872.50
2018-05-12T22:06:21.483Z,99873.00
2018-05-12T22:08:50.857Z,99873.69
2018-05-12T22:11:20.251Z,99866.27
2018-05-12T22:13:49.591Z,99871.24
2018-05-12T22:16:18.946Z,99866.63
2018-05-12T22:18:48.305Z,99868.27
2018-05-12T22:21:17.925Z,99873.23
2018-05-12T22:23:47.315Z,99874.42
2018-05-12T22:26:16.438Z,99875.66
2018-05-12T22:28:45.790Z,99877.00
2018-05-12T22:31:15.127Z,99880.14
2018-05-12T22:33:44.459Z,99872.96
2018-05-12T22:36:13.852Z,99872.39
2018-05-12T22:38:43.202Z,99877.89
2018-05-12T22:41:12.545Z,99880.05
2018-05-12T22:43:41.920Z,99876.02
2018-05-12T22:46:11.258Z,99880.19
2018-05-12T22:48:40.867Z,99873.53
2018-05-12T22:51:10.216Z,99879.77
2018-05-12T22:53:39.569Z,99884.46
2018-05-12T22:56:08.927Z,99887.40
2018-05-12T22:58:38.280Z,99885.23
2018-05-12T23:01:07.655Z,99886.51
2018-05-12T23:03:37.278Z,99879.33
2018-05-12T23:06:06.906Z,99886.66
2018-05-12T23:08:36.532Z,99886.73
2018-05-12T23:11:06.150Z,99875.20
2018-05-12T23:13:35.848Z,99884.50
2018-05-12T23:16:05.476Z,99879.60
2018-05-12T23:18:34.831Z,99878.54
2018-05-12T23:21:04.587Z,99874.80
2018-05-12T23:23:34.207Z,99877.72
2018-05-12T23:26:03.867Z,99882.94
2018-05-12T23:28:33.483Z,99884.56
2018-05-12T23:31:03.223Z,99887.98
2018-05-12T23:33:32.115Z,99888.51
2018-05-12T23:36:01.734Z,99897.72
2018-05-12T23:38:31.420Z,99895.31
2018-05-12T23:41:01.047Z,99889.77
2018-05-12T23:43:30.670Z,99898.94
2018-05-12T23:46:00.292Z,99895.71
2018-05-12T23:48:29.918Z,99896.59
2018-05-12T23:50:59.593Z,99894.48
2018-05-12T23:53:29.216Z,99894.84
2018-05-12T23:55:58.868Z,99894.61
2018-05-12T23:58:28.494Z,99892.16
